sensor_id;sensor_type;location;lat;lon;timestamp;P1;durP1;ratioP1;P2;durP2;ratioP2
6095;SDS011;25081;42.698;23.298;2023-06-19T00:00:18;7.47;;;5.27;;
6095;SDS011;25081;42.698;23.298;2023-06-19T00:02:28;10.00;;;5.60;;
6095;SDS011;25081;42.698;23.298;2023-06-19T00:04:40;6.77;;;6.03;;
6095;SDS011;25081;42.698;23.298;2023-06-19T00:06:51;6.73;;;5.10;;
6095;SDS011;25081;42.698;23.298;2023-06-19T00:09:02;7.87;;;5.93;;
6095;SDS011;25081;42.698;23.298;2023-06-19T00:11:12;6.07;;;5.17;;
6095;SDS011;25081;42.698;23.298;2023-06-19T00:13:23;8.63;;;5.83;;
6095;SDS011;25081;42.698;23.298;2023-06-19T00:15:33;13.67;;;6.13;;
6095;SDS011;25081;42.698;23.298;2023-06-19T00:17:44;5.40;;;4.90;;
6095;SDS011;25081;42.698;23.298;2023-06-19T00:19:55;6.57;;;5.13;;
6095;SDS011;25081;42.698;23.298;2023-06-19T00:22:06;6.10;;;5.33;;
6095;SDS011;25081;42.698;23.298;2023-06-19T00:24:17;5.53;;;4.83;;
6095;SDS011;25081;42.698;23.298;2023-06-19T00:26:27;5.60;;;5.00;;
6095;SDS011;25081;42.698;23.298;2023-06-19T00:28:38;8.10;;;5.50;;
6095;SDS011;25081;42.698;23.298;2023-06-19T00:30:49;8.33;;;5.80;;
6095;SDS011;25081;42.698;23.298;2023-06-19T00:32:59;6.90;;;5.70;;
6095;SDS011;25081;42.698;23.298;2023-06-19T00:35:10;7.20;;;5.50;;
6095;SDS011;25081;42.698;23.298;2023-06-19T00:37:21;5.97;;;5.30;;
6095;SDS011;25081;42.698;23.298;2023-06-19T00:39:31;7.27;;;5.70;;
6095;SDS011;25081;42.698;23.298;2023-06-19T00:41:42;5.60;;;5.00;;
6095;SDS011;25081;42.698;23.298;2023-06-19T00:43:52;6.90;;;5.30;;
6095;SDS011;25081;42.698;23.298;2023-06-19T00:46:06;6.47;;;5.50;;
6095;SDS011;25081;42.698;23.298;2023-06-19T00:48:17;7.40;;;5.40;;
6095;SDS011;25081;42.698;23.298;2023-06-19T00:50:28;6.60;;;5.90;;
6095;SDS011;25081;42.698;23.298;2023-06-19T00:52:39;5.97;;;5.20;;
6095;SDS011;25081;42.698;23.298;2023-06-19T00:54:50;5.90;;;5.30;;
6095;SDS011;25081;42.698;23.298;2023-06-19T00:57:00;8.23;;;6.77;;
6095;SDS011;25081;42.698;23.298;2023-06-19T00:59:13;6.30;;;5.40;;
6095;SDS011;25081;42.698;23.298;2023-06-19T01:01:23;7.30;;;6.00;;
6095;SDS011;25081;42.698;23.298;2023-06-19T01:03:34;8.13;;;5.23;;
6095;SDS011;25081;42.698;23.298;2023-06-19T01:05:45;8.70;;;5.57;;
6095;SDS011;25081;42.698;23.298;2023-06-19T01:07:58;9.93;;;6.00;;
6095;SDS011;25081;42.698;23.298;2023-06-19T01:10:10;9.10;;;6.10;;
6095;SDS011;25081;42.698;23.298;2023-06-19T01:12:19;6.33;;;5.73;;
6095;SDS011;25081;42.698;23.298;2023-06-19T01:14:30;6.47;;;5.33;;
6095;SDS011;25081;42.698;23.298;2023-06-19T01:16:41;10.50;;;5.50;;
6095;SDS011;25081;42.698;23.298;2023-06-19T01:18:51;6.03;;;5.43;;
6095;SDS011;25081;42.698;23.298;2023-06-19T01:21:10;7.57;;;6.23;;
6095;SDS011;25081;42.698;23.298;2023-06-19T01:23:21;6.77;;;5.43;;
6095;SDS011;25081;42.698;23.298;2023-06-19T01:25:31;6.87;;;6.00;;
6095;SDS011;25081;42.698;23.298;2023-06-19T01:27:42;7.20;;;6.37;;
6095;SDS011;25081;42.698;23.298;2023-06-19T01:29:52;6.10;;;5.47;;
6095;SDS011;25081;42.698;23.298;2023-06-19T01:32:04;8.23;;;5.63;;
6095;SDS011;25081;42.698;23.298;2023-06-19T01:34:15;7.93;;;6.20;;
6095;SDS011;25081;42.698;23.298;2023-06-19T01:36:25;7.47;;;5.80;;
6095;SDS011;25081;42.698;23.298;2023-06-19T01:38:36;7.70;;;5.97;;
6095;SDS011;25081;42.698;23.298;2023-06-19T01:40:46;8.33;;;5.57;;
6095;SDS011;25081;42.698;23.298;2023-06-19T01:42:57;9.73;;;6.20;;
6095;SDS011;25081;42.698;23.298;2023-06-19T01:45:10;8.03;;;6.53;;
6095;SDS011;25081;42.698;23.298;2023-06-19T01:47:20;9.17;;;6.63;;
6095;SDS011;25081;42.698;23.298;2023-06-19T01:49:31;7.80;;;6.27;;
6095;SDS011;25081;42.698;23.298;2023-06-19T01:51:41;7.10;;;5.23;;
6095;SDS011;25081;42.698;23.298;2023-06-19T01:53:52;7.60;;;5.70;;
6095;SDS011;25081;42.698;23.298;2023-06-19T01:56:02;8.47;;;5.73;;
6095;SDS011;25081;42.698;23.298;2023-06-19T01:58:13;6.83;;;5.90;;
6095;SDS011;25081;42.698;23.298;2023-06-19T02:00:24;6.27;;;5.37;;
6095;SDS011;25081;42.698;23.298;2023-06-19T02:02:34;9.30;;;6.10;;
6095;SDS011;25081;42.698;23.298;2023-06-19T02:04:45;6.93;;;5.40;;
6095;SDS011;25081;42.698;23.298;2023-06-19T02:06:55;8.00;;;6.23;;
6095;SDS011;25081;42.698;23.298;2023-06-19T02:09:06;8.40;;;5.90;;
6095;SDS011;25081;42.698;23.298;2023-06-19T02:11:17;8.43;;;6.37;;
6095;SDS011;25081;42.698;23.298;2023-06-19T02:13:28;9.33;;;5.93;;
6095;SDS011;25081;42.698;23.298;2023-06-19T02:15:38;6.90;;;6.23;;
6095;SDS011;25081;42.698;23.298;2023-06-19T02:17:49;10.30;;;5.57;;
6095;SDS011;25081;42.698;23.298;2023-06-19T02:20:00;6.50;;;5.80;;
6095;SDS011;25081;42.698;23.298;2023-06-19T02:22:11;7.70;;;5.67;;
6095;SDS011;25081;42.698;23.298;2023-06-19T02:24:22;7.27;;;6.57;;
6095;SDS011;25081;42.698;23.298;2023-06-19T02:26:33;11.53;;;5.97;;
6095;SDS011;25081;42.698;23.298;2023-06-19T02:28:43;9.07;;;5.90;;
6095;SDS011;25081;42.698;23.298;2023-06-19T02:30:54;9.80;;;5.90;;
6095;SDS011;25081;42.698;23.298;2023-06-19T02:33:05;8.23;;;6.60;;
6095;SDS011;25081;42.698;23.298;2023-06-19T02:35:15;7.77;;;6.60;;
6095;SDS011;25081;42.698;23.298;2023-06-19T02:37:26;10.00;;;6.27;;
6095;SDS011;25081;42.698;23.298;2023-06-19T02:39:37;10.10;;;6.23;;
6095;SDS011;25081;42.698;23.298;2023-06-19T02:41:48;7.07;;;5.73;;
6095;SDS011;25081;42.698;23.298;2023-06-19T02:43:59;9.97;;;5.60;;
6095;SDS011;25081;42.698;23.298;2023-06-19T02:46:10;9.03;;;5.57;;
6095;SDS011;25081;42.698;23.298;2023-06-19T02:48:20;10.33;;;6.60;;
6095;SDS011;25081;42.698;23.298;2023-06-19T02:50:31;9.33;;;6.27;;
6095;SDS011;25081;42.698;23.298;2023-06-19T02:52:42;7.37;;;6.33;;
6095;SDS011;25081;42.698;23.298;2023-06-19T02:54:52;7.57;;;6.00;;
6095;SDS011;25081;42.698;23.298;2023-06-19T02:57:05;10.73;;;6.70;;
6095;SDS011;25081;42.698;23.298;2023-06-19T02:59:16;10.60;;;6.60;;
6095;SDS011;25081;42.698;23.298;2023-06-19T03:01:27;9.53;;;6.60;;
6095;SDS011;25081;42.698;23.298;2023-06-19T03:03:37;9.63;;;6.10;;
6095;SDS011;25081;42.698;23.298;2023-06-19T03:05:48;8.03;;;6.30;;
6095;SDS011;25081;42.698;23.298;2023-06-19T03:07:58;7.20;;;6.30;;
6095;SDS011;25081;42.698;23.298;2023-06-19T03:10:10;7.90;;;6.73;;
6095;SDS011;25081;42.698;23.298;2023-06-19T03:12:20;9.97;;;6.80;;
6095;SDS011;25081;42.698;23.298;2023-06-19T03:14:31;8.50;;;6.40;;
6095;SDS011;25081;42.698;23.298;2023-06-19T03:16:41;9.80;;;6.03;;
6095;SDS011;25081;42.698;23.298;2023-06-19T03:18:52;8.63;;;6.63;;
6095;SDS011;25081;42.698;23.298;2023-06-19T03:21:03;12.83;;;9.57;;
6095;SDS011;25081;42.698;23.298;2023-06-19T03:23:14;23.57;;;19.83;;
6095;SDS011;25081;42.698;23.298;2023-06-19T03:25:24;10.63;;;7.33;;
6095;SDS011;25081;42.698;23.298;2023-06-19T03:27:35;16.00;;;9.83;;
6095;SDS011;25081;42.698;23.298;2023-06-19T03:29:45;35.77;;;26.33;;
6095;SDS011;25081;42.698;23.298;2023-06-19T03:31:56;28.40;;;19.60;;
6095;SDS011;25081;42.698;23.298;2023-06-19T03:34:07;13.47;;;7.90;;
6095;SDS011;25081;42.698;23.298;2023-06-19T03:36:17;8.83;;;6.90;;
6095;SDS011;25081;42.698;23.298;2023-06-19T03:38:28;15.33;;;6.97;;
6095;SDS011;25081;42.698;23.298;2023-06-19T03:40:39;8.53;;;6.40;;
6095;SDS011;25081;42.698;23.298;2023-06-19T03:42:50;9.23;;;6.50;;
6095;SDS011;25081;42.698;23.298;2023-06-19T03:45:01;8.47;;;6.23;;
6095;SDS011;25081;42.698;23.298;2023-06-19T03:47:12;10.87;;;7.00;;
6095;SDS011;25081;42.698;23.298;2023-06-19T03:49:23;14.10;;;6.83;;
6095;SDS011;25081;42.698;23.298;2023-06-19T03:51:33;9.53;;;7.37;;
6095;SDS011;25081;42.698;23.298;2023-06-19T03:53:44;11.23;;;6.80;;
6095;SDS011;25081;42.698;23.298;2023-06-19T03:55:55;12.77;;;6.90;;
6095;SDS011;25081;42.698;23.298;2023-06-19T03:58:05;12.53;;;7.40;;
6095;SDS011;25081;42.698;23.298;2023-06-19T04:00:17;18.13;;;6.90;;
6095;SDS011;25081;42.698;23.298;2023-06-19T04:02:27;8.47;;;6.50;;
6095;SDS011;25081;42.698;23.298;2023-06-19T04:04:38;10.17;;;7.37;;
6095;SDS011;25081;42.698;23.298;2023-06-19T04:06:49;11.03;;;7.40;;
6095;SDS011;25081;42.698;23.298;2023-06-19T04:09:00;7.30;;;5.73;;
6095;SDS011;25081;42.698;23.298;2023-06-19T04:11:10;10.13;;;5.57;;
6095;SDS011;25081;42.698;23.298;2023-06-19T04:13:21;14.00;;;6.13;;
6095;SDS011;25081;42.698;23.298;2023-06-19T04:15:32;8.83;;;6.67;;
6095;SDS011;25081;42.698;23.298;2023-06-19T04:17:42;29.67;;;8.07;;
6095;SDS011;25081;42.698;23.298;2023-06-19T04:19:53;8.77;;;6.57;;
6095;SDS011;25081;42.698;23.298;2023-06-19T04:22:04;9.13;;;6.20;;
6095;SDS011;25081;42.698;23.298;2023-06-19T04:24:15;9.90;;;6.63;;
6095;SDS011;25081;42.698;23.298;2023-06-19T04:26:25;13.17;;;7.07;;
6095;SDS011;25081;42.698;23.298;2023-06-19T04:28:36;11.87;;;6.40;;
6095;SDS011;25081;42.698;23.298;2023-06-19T04:30:47;9.83;;;6.60;;
6095;SDS011;25081;42.698;23.298;2023-06-19T04:32:58;10.00;;;5.80;;
6095;SDS011;25081;42.698;23.298;2023-06-19T04:35:09;10.50;;;6.43;;
6095;SDS011;25081;42.698;23.298;2023-06-19T04:37:20;9.60;;;5.80;;
6095;SDS011;25081;42.698;23.298;2023-06-19T04:39:30;9.10;;;5.67;;
6095;SDS011;25081;42.698;23.298;2023-06-19T04:41:42;10.50;;;6.27;;
6095;SDS011;25081;42.698;23.298;2023-06-19T04:43:52;9.87;;;5.10;;
6095;SDS011;25081;42.698;23.298;2023-06-19T04:46:03;9.10;;;4.53;;
6095;SDS011;25081;42.698;23.298;2023-06-19T04:48:14;5.73;;;4.33;;
6095;SDS011;25081;42.698;23.298;2023-06-19T04:50:24;4.70;;;4.20;;
6095;SDS011;25081;42.698;23.298;2023-06-19T04:52:35;6.30;;;4.73;;
6095;SDS011;25081;42.698;23.298;2023-06-19T04:54:45;5.17;;;4.43;;
6095;SDS011;25081;42.698;23.298;2023-06-19T04:56:56;7.77;;;5.10;;
6095;SDS011;25081;42.698;23.298;2023-06-19T04:59:07;7.33;;;5.17;;
6095;SDS011;25081;42.698;23.298;2023-06-19T05:01:18;5.13;;;4.47;;
6095;SDS011;25081;42.698;23.298;2023-06-19T05:03:28;10.33;;;4.93;;
6095;SDS011;25081;42.698;23.298;2023-06-19T05:05:39;7.07;;;4.43;;
6095;SDS011;25081;42.698;23.298;2023-06-19T05:07:50;10.57;;;5.00;;
6095;SDS011;25081;42.698;23.298;2023-06-19T05:10:00;5.97;;;4.57;;
6095;SDS011;25081;42.698;23.298;2023-06-19T05:12:12;9.50;;;4.97;;
6095;SDS011;25081;42.698;23.298;2023-06-19T05:14:22;10.63;;;5.90;;
6095;SDS011;25081;42.698;23.298;2023-06-19T05:16:34;5.70;;;4.80;;
6095;SDS011;25081;42.698;23.298;2023-06-19T05:18:44;5.50;;;5.00;;
6095;SDS011;25081;42.698;23.298;2023-06-19T05:20:55;5.00;;;4.50;;
6095;SDS011;25081;42.698;23.298;2023-06-19T05:23:05;6.53;;;4.73;;
6095;SDS011;25081;42.698;23.298;2023-06-19T05:25:16;6.20;;;4.20;;
6095;SDS011;25081;42.698;23.298;2023-06-19T05:27:26;10.07;;;5.77;;
6095;SDS011;25081;42.698;23.298;2023-06-19T05:29:37;5.20;;;4.70;;
6095;SDS011;25081;42.698;23.298;2023-06-19T05:31:48;7.03;;;4.27;;
6095;SDS011;25081;42.698;23.298;2023-06-19T05:33:58;8.47;;;5.30;;
6095;SDS011;25081;42.698;23.298;2023-06-19T05:36:09;8.20;;;4.37;;
6095;SDS011;25081;42.698;23.298;2023-06-19T05:38:19;7.47;;;4.10;;
6095;SDS011;25081;42.698;23.298;2023-06-19T05:40:30;10.10;;;5.63;;
6095;SDS011;25081;42.698;23.298;2023-06-19T05:42:40;6.13;;;4.97;;
6095;SDS011;25081;42.698;23.298;2023-06-19T05:44:51;8.77;;;4.80;;
6095;SDS011;25081;42.698;23.298;2023-06-19T05:47:02;8.27;;;5.27;;
6095;SDS011;25081;42.698;23.298;2023-06-19T05:49:13;7.63;;;4.80;;
6095;SDS011;25081;42.698;23.298;2023-06-19T05:51:23;12.00;;;5.07;;
6095;SDS011;25081;42.698;23.298;2023-06-19T05:53:34;7.10;;;4.43;;
6095;SDS011;25081;42.698;23.298;2023-06-19T05:55:45;9.23;;;4.07;;
6095;SDS011;25081;42.698;23.298;2023-06-19T05:57:56;6.40;;;4.60;;
6095;SDS011;25081;42.698;23.298;2023-06-19T06:00:08;4.97;;;3.90;;
6095;SDS011;25081;42.698;23.298;2023-06-19T06:02:20;7.13;;;5.00;;
6095;SDS011;25081;42.698;23.298;2023-06-19T06:04:30;6.20;;;4.93;;
6095;SDS011;25081;42.698;23.298;2023-06-19T06:06:41;7.10;;;4.73;;
6095;SDS011;25081;42.698;23.298;2023-06-19T06:08:52;4.47;;;3.90;;
6095;SDS011;25081;42.698;23.298;2023-06-19T06:11:02;6.03;;;4.27;;
6095;SDS011;25081;42.698;23.298;2023-06-19T06:13:13;4.83;;;4.33;;
6095;SDS011;25081;42.698;23.298;2023-06-19T06:15:24;5.33;;;4.33;;
6095;SDS011;25081;42.698;23.298;2023-06-19T06:17:34;4.70;;;4.20;;
6095;SDS011;25081;42.698;23.298;2023-06-19T06:19:45;7.23;;;4.07;;
6095;SDS011;25081;42.698;23.298;2023-06-19T06:21:55;4.77;;;4.27;;
6095;SDS011;25081;42.698;23.298;2023-06-19T06:24:06;9.00;;;4.43;;
6095;SDS011;25081;42.698;23.298;2023-06-19T06:26:18;6.40;;;4.70;;
6095;SDS011;25081;42.698;23.298;2023-06-19T06:28:29;6.27;;;4.20;;
6095;SDS011;25081;42.698;23.298;2023-06-19T06:30:39;8.40;;;4.50;;
6095;SDS011;25081;42.698;23.298;2023-06-19T06:32:50;5.47;;;4.50;;
6095;SDS011;25081;42.698;23.298;2023-06-19T06:35:01;6.10;;;4.63;;
6095;SDS011;25081;42.698;23.298;2023-06-19T06:37:11;5.20;;;4.20;;
6095;SDS011;25081;42.698;23.298;2023-06-19T06:39:22;4.80;;;4.30;;
6095;SDS011;25081;42.698;23.298;2023-06-19T06:41:32;5.40;;;4.10;;
6095;SDS011;25081;42.698;23.298;2023-06-19T06:43:43;5.40;;;4.23;;
6095;SDS011;25081;42.698;23.298;2023-06-19T06:45:53;5.50;;;4.83;;
6095;SDS011;25081;42.698;23.298;2023-06-19T06:48:05;8.60;;;4.40;;
6095;SDS011;25081;42.698;23.298;2023-06-19T06:50:17;5.93;;;4.80;;
6095;SDS011;25081;42.698;23.298;2023-06-19T06:52:28;4.37;;;3.97;;
6095;SDS011;25081;42.698;23.298;2023-06-19T06:54:39;6.17;;;4.90;;
6095;SDS011;25081;42.698;23.298;2023-06-19T06:56:49;7.70;;;4.40;;
6095;SDS011;25081;42.698;23.298;2023-06-19T06:59:01;4.67;;;3.87;;
6095;SDS011;25081;42.698;23.298;2023-06-19T07:01:10;5.80;;;4.50;;
6095;SDS011;25081;42.698;23.298;2023-06-19T07:03:21;5.20;;;4.23;;
6095;SDS011;25081;42.698;23.298;2023-06-19T07:05:32;5.23;;;4.07;;
6095;SDS011;25081;42.698;23.298;2023-06-19T07:07:42;5.57;;;4.30;;
6095;SDS011;25081;42.698;23.298;2023-06-19T07:09:53;9.10;;;4.43;;
6095;SDS011;25081;42.698;23.298;2023-06-19T07:12:04;5.93;;;4.47;;
6095;SDS011;25081;42.698;23.298;2023-06-19T07:14:15;5.50;;;4.20;;
6095;SDS011;25081;42.698;23.298;2023-06-19T07:16:26;5.60;;;4.20;;
6095;SDS011;25081;42.698;23.298;2023-06-19T07:18:36;5.10;;;4.60;;
6095;SDS011;25081;42.698;23.298;2023-06-19T07:20:47;15.40;;;8.63;;
6095;SDS011;25081;42.698;23.298;2023-06-19T07:22:58;5.20;;;4.40;;
6095;SDS011;25081;42.698;23.298;2023-06-19T07:25:10;5.80;;;4.17;;
6095;SDS011;25081;42.698;23.298;2023-06-19T07:27:20;6.07;;;4.07;;
6095;SDS011;25081;42.698;23.298;2023-06-19T07:29:31;9.17;;;4.03;;
6095;SDS011;25081;42.698;23.298;2023-06-19T07:31:41;6.07;;;3.97;;
6095;SDS011;25081;42.698;23.298;2023-06-19T07:33:52;4.47;;;4.00;;
6095;SDS011;25081;42.698;23.298;2023-06-19T07:36:03;4.90;;;4.10;;
6095;SDS011;25081;42.698;23.298;2023-06-19T07:38:14;9.43;;;4.53;;
6095;SDS011;25081;42.698;23.298;2023-06-19T07:40:25;5.20;;;4.27;;
6095;SDS011;25081;42.698;23.298;2023-06-19T07:42:35;8.60;;;4.23;;
6095;SDS011;25081;42.698;23.298;2023-06-19T07:44:46;4.50;;;3.57;;
6095;SDS011;25081;42.698;23.298;2023-06-19T07:46:57;4.50;;;3.97;;
6095;SDS011;25081;42.698;23.298;2023-06-19T07:49:07;8.00;;;4.63;;
6095;SDS011;25081;42.698;23.298;2023-06-19T07:51:18;5.27;;;3.90;;
6095;SDS011;25081;42.698;23.298;2023-06-19T07:53:29;5.70;;;3.80;;
6095;SDS011;25081;42.698;23.298;2023-06-19T07:55:40;5.73;;;3.80;;
6095;SDS011;25081;42.698;23.298;2023-06-19T07:57:51;4.70;;;4.20;;
6095;SDS011;25081;42.698;23.298;2023-06-19T08:00:02;4.83;;;3.93;;
6095;SDS011;25081;42.698;23.298;2023-06-19T08:02:14;5.40;;;4.07;;
6095;SDS011;25081;42.698;23.298;2023-06-19T08:04:24;6.23;;;4.10;;
6095;SDS011;25081;42.698;23.298;2023-06-19T08:06:35;4.70;;;4.00;;
6095;SDS011;25081;42.698;23.298;2023-06-19T08:08:46;4.60;;;4.20;;
6095;SDS011;25081;42.698;23.298;2023-06-19T08:10:56;4.20;;;3.80;;
6095;SDS011;25081;42.698;23.298;2023-06-19T08:13:07;4.80;;;4.00;;
6095;SDS011;25081;42.698;23.298;2023-06-19T08:15:18;6.03;;;3.70;;
6095;SDS011;25081;42.698;23.298;2023-06-19T08:17:29;9.77;;;3.80;;
6095;SDS011;25081;42.698;23.298;2023-06-19T08:19:39;4.50;;;4.10;;
6095;SDS011;25081;42.698;23.298;2023-06-19T08:21:50;6.73;;;3.90;;
6095;SDS011;25081;42.698;23.298;2023-06-19T08:24:00;6.73;;;4.60;;
6095;SDS011;25081;42.698;23.298;2023-06-19T08:26:11;4.33;;;3.83;;
6095;SDS011;25081;42.698;23.298;2023-06-19T08:28:22;4.67;;;3.27;;
6095;SDS011;25081;42.698;23.298;2023-06-19T08:30:32;4.73;;;3.50;;
6095;SDS011;25081;42.698;23.298;2023-06-19T08:32:46;5.30;;;3.83;;
6095;SDS011;25081;42.698;23.298;2023-06-19T08:34:54;3.97;;;3.43;;
6095;SDS011;25081;42.698;23.298;2023-06-19T08:37:05;6.03;;;4.50;;
6095;SDS011;25081;42.698;23.298;2023-06-19T08:39:16;3.77;;;3.47;;
6095;SDS011;25081;42.698;23.298;2023-06-19T08:41:27;4.67;;;4.27;;
6095;SDS011;25081;42.698;23.298;2023-06-19T08:43:38;4.20;;;3.80;;
6095;SDS011;25081;42.698;23.298;2023-06-19T08:46:11;6.43;;;3.70;;
6095;SDS011;25081;42.698;23.298;2023-06-19T08:48:37;4.27;;;3.80;;
6095;SDS011;25081;42.698;23.298;2023-06-19T08:50:51;7.60;;;3.83;;
6095;SDS011;25081;42.698;23.298;2023-06-19T08:53:02;4.47;;;3.10;;
6095;SDS011;25081;42.698;23.298;2023-06-19T08:55:15;3.83;;;3.50;;
6095;SDS011;25081;42.698;23.298;2023-06-19T08:57:37;6.27;;;4.10;;
6095;SDS011;25081;42.698;23.298;2023-06-19T08:59:50;4.80;;;3.70;;
6095;SDS011;25081;42.698;23.298;2023-06-19T09:02:00;4.20;;;3.80;;
6095;SDS011;25081;42.698;23.298;2023-06-19T09:04:12;4.20;;;3.63;;
6095;SDS011;25081;42.698;23.298;2023-06-19T09:06:22;6.33;;;4.43;;
6095;SDS011;25081;42.698;23.298;2023-06-19T09:08:32;4.20;;;3.80;;
6095;SDS011;25081;42.698;23.298;2023-06-19T09:10:53;8.63;;;4.00;;
6095;SDS011;25081;42.698;23.298;2023-06-19T09:12:58;14.00;;;5.03;;
6095;SDS011;25081;42.698;23.298;2023-06-19T09:15:12;6.70;;;4.10;;
6095;SDS011;25081;42.698;23.298;2023-06-19T09:17:22;5.30;;;3.93;;
6095;SDS011;25081;42.698;23.298;2023-06-19T09:19:33;5.03;;;3.70;;
6095;SDS011;25081;42.698;23.298;2023-06-19T09:21:44;5.37;;;3.90;;
6095;SDS011;25081;42.698;23.298;2023-06-19T09:23:54;5.70;;;3.73;;
6095;SDS011;25081;42.698;23.298;2023-06-19T09:26:05;4.20;;;3.80;;
6095;SDS011;25081;42.698;23.298;2023-06-19T09:28:19;4.20;;;3.80;;
6095;SDS011;25081;42.698;23.298;2023-06-19T09:30:30;4.37;;;3.57;;
6095;SDS011;25081;42.698;23.298;2023-06-19T09:32:40;9.20;;;5.03;;
6095;SDS011;25081;42.698;23.298;2023-06-19T09:34:51;5.13;;;4.17;;
6095;SDS011;25081;42.698;23.298;2023-06-19T09:37:01;5.33;;;4.73;;
6095;SDS011;25081;42.698;23.298;2023-06-19T09:39:12;6.30;;;4.50;;
6095;SDS011;25081;42.698;23.298;2023-06-19T09:41:23;5.53;;;4.37;;
6095;SDS011;25081;42.698;23.298;2023-06-19T09:43:36;4.97;;;3.70;;
6095;SDS011;25081;42.698;23.298;2023-06-19T09:45:46;8.67;;;6.00;;
6095;SDS011;25081;42.698;23.298;2023-06-19T09:47:58;6.17;;;3.90;;
6095;SDS011;25081;42.698;23.298;2023-06-19T09:50:10;4.03;;;3.60;;
6095;SDS011;25081;42.698;23.298;2023-06-19T09:52:20;5.70;;;4.40;;
6095;SDS011;25081;42.698;23.298;2023-06-19T09:54:31;5.30;;;4.00;;
6095;SDS011;25081;42.698;23.298;2023-06-19T09:56:41;5.53;;;4.20;;
6095;SDS011;25081;42.698;23.298;2023-06-19T09:58:52;8.77;;;4.27;;
6095;SDS011;25081;42.698;23.298;2023-06-19T10:01:02;5.73;;;4.07;;
6095;SDS011;25081;42.698;23.298;2023-06-19T10:03:13;5.57;;;4.23;;
6095;SDS011;25081;42.698;23.298;2023-06-19T10:05:29;6.43;;;4.57;;
6095;SDS011;25081;42.698;23.298;2023-06-19T10:07:41;5.20;;;4.63;;
6095;SDS011;25081;42.698;23.298;2023-06-19T10:09:58;4.03;;;3.63;;
6095;SDS011;25081;42.698;23.298;2023-06-19T10:12:12;5.23;;;4.37;;
6095;SDS011;25081;42.698;23.298;2023-06-19T10:14:23;5.77;;;4.00;;
6095;SDS011;25081;42.698;23.298;2023-06-19T10:16:34;6.20;;;4.80;;
6095;SDS011;25081;42.698;23.298;2023-06-19T10:18:47;5.90;;;4.53;;
6095;SDS011;25081;42.698;23.298;2023-06-19T10:20:57;7.13;;;4.30;;
6095;SDS011;25081;42.698;23.298;2023-06-19T10:23:11;6.10;;;3.83;;
6095;SDS011;25081;42.698;23.298;2023-06-19T10:25:22;5.13;;;3.73;;
6095;SDS011;25081;42.698;23.298;2023-06-19T10:27:33;6.70;;;4.17;;
6095;SDS011;25081;42.698;23.298;2023-06-19T10:29:43;6.03;;;4.20;;
6095;SDS011;25081;42.698;23.298;2023-06-19T10:31:54;5.27;;;4.30;;
6095;SDS011;25081;42.698;23.298;2023-06-19T10:34:05;6.03;;;4.10;;
6095;SDS011;25081;42.698;23.298;2023-06-19T10:36:16;6.10;;;4.60;;
6095;SDS011;25081;42.698;23.298;2023-06-19T10:38:26;5.47;;;4.73;;
6095;SDS011;25081;42.698;23.298;2023-06-19T10:40:37;5.57;;;4.00;;
6095;SDS011;25081;42.698;23.298;2023-06-19T10:42:47;7.13;;;3.90;;
6095;SDS011;25081;42.698;23.298;2023-06-19T10:45:01;5.70;;;4.33;;
6095;SDS011;25081;42.698;23.298;2023-06-19T10:47:12;6.50;;;4.07;;
6095;SDS011;25081;42.698;23.298;2023-06-19T10:49:23;5.93;;;4.77;;
6095;SDS011;25081;42.698;23.298;2023-06-19T10:51:34;5.27;;;4.30;;
6095;SDS011;25081;42.698;23.298;2023-06-19T10:53:45;4.63;;;4.13;;
6095;SDS011;25081;42.698;23.298;2023-06-19T10:55:56;6.33;;;4.57;;
6095;SDS011;25081;42.698;23.298;2023-06-19T10:58:06;5.80;;;4.60;;
6095;SDS011;25081;42.698;23.298;2023-06-19T11:00:26;5.90;;;4.77;;
6095;SDS011;25081;42.698;23.298;2023-06-19T11:02:36;6.07;;;4.43;;
6095;SDS011;25081;42.698;23.298;2023-06-19T11:04:48;7.43;;;4.20;;
6095;SDS011;25081;42.698;23.298;2023-06-19T11:06:58;5.57;;;4.70;;
6095;SDS011;25081;42.698;23.298;2023-06-19T11:09:10;6.33;;;5.17;;
6095;SDS011;25081;42.698;23.298;2023-06-19T11:11:20;6.50;;;4.93;;
6095;SDS011;25081;42.698;23.298;2023-06-19T11:13:30;4.73;;;4.33;;
6095;SDS011;25081;42.698;23.298;2023-06-19T11:15:41;6.03;;;4.77;;
6095;SDS011;25081;42.698;23.298;2023-06-19T11:17:52;6.07;;;4.73;;
6095;SDS011;25081;42.698;23.298;2023-06-19T11:20:03;6.07;;;4.80;;
6095;SDS011;25081;42.698;23.298;2023-06-19T11:22:14;7.63;;;4.80;;
6095;SDS011;25081;42.698;23.298;2023-06-19T11:24:25;7.90;;;5.20;;
6095;SDS011;25081;42.698;23.298;2023-06-19T11:26:36;6.17;;;5.00;;
6095;SDS011;25081;42.698;23.298;2023-06-19T11:28:48;6.50;;;4.93;;
6095;SDS011;25081;42.698;23.298;2023-06-19T11:31:00;6.33;;;5.20;;
6095;SDS011;25081;42.698;23.298;2023-06-19T11:33:17;6.00;;;4.97;;
6095;SDS011;25081;42.698;23.298;2023-06-19T11:35:33;8.30;;;4.80;;
6095;SDS011;25081;42.698;23.298;2023-06-19T11:37:45;6.70;;;5.00;;
6095;SDS011;25081;42.698;23.298;2023-06-19T11:39:55;6.03;;;5.20;;
6095;SDS011;25081;42.698;23.298;2023-06-19T11:42:07;6.70;;;4.87;;
6095;SDS011;25081;42.698;23.298;2023-06-19T11:44:17;6.60;;;4.93;;
6095;SDS011;25081;42.698;23.298;2023-06-19T11:46:31;5.27;;;4.77;;
6095;SDS011;25081;42.698;23.298;2023-06-19T11:48:41;5.43;;;4.77;;
6095;SDS011;25081;42.698;23.298;2023-06-19T11:50:52;7.13;;;4.80;;
6095;SDS011;25081;42.698;23.298;2023-06-19T11:53:02;6.30;;;4.73;;
6095;SDS011;25081;42.698;23.298;2023-06-19T11:55:13;8.07;;;5.27;;
6095;SDS011;25081;42.698;23.298;2023-06-19T11:57:24;5.53;;;4.40;;
6095;SDS011;25081;42.698;23.298;2023-06-19T11:59:36;5.23;;;4.73;;
6095;SDS011;25081;42.698;23.298;2023-06-19T12:01:47;5.53;;;4.93;;
6095;SDS011;25081;42.698;23.298;2023-06-19T12:03:57;5.70;;;4.37;;
6095;SDS011;25081;42.698;23.298;2023-06-19T12:06:08;5.00;;;4.50;;
6095;SDS011;25081;42.698;23.298;2023-06-19T12:08:18;6.90;;;4.67;;
6095;SDS011;25081;42.698;23.298;2023-06-19T12:10:29;5.90;;;5.27;;
6095;SDS011;25081;42.698;23.298;2023-06-19T12:12:39;6.93;;;4.77;;
6095;SDS011;25081;42.698;23.298;2023-06-19T12:14:50;7.80;;;5.20;;
6095;SDS011;25081;42.698;23.298;2023-06-19T12:17:00;5.80;;;5.00;;
6095;SDS011;25081;42.698;23.298;2023-06-19T12:19:11;6.83;;;5.80;;
6095;SDS011;25081;42.698;23.298;2023-06-19T12:21:22;8.10;;;5.40;;
6095;SDS011;25081;42.698;23.298;2023-06-19T12:23:32;6.87;;;5.20;;
6095;SDS011;25081;42.698;23.298;2023-06-19T12:25:43;5.97;;;5.07;;
6095;SDS011;25081;42.698;23.298;2023-06-19T12:27:53;6.23;;;5.00;;
6095;SDS011;25081;42.698;23.298;2023-06-19T12:30:05;6.37;;;5.60;;
6095;SDS011;25081;42.698;23.298;2023-06-19T12:32:16;7.00;;;5.33;;
6095;SDS011;25081;42.698;23.298;2023-06-19T12:34:27;5.80;;;4.67;;
6095;SDS011;25081;42.698;23.298;2023-06-19T12:36:38;11.47;;;5.50;;
6095;SDS011;25081;42.698;23.298;2023-06-19T12:38:48;5.57;;;4.90;;
6095;SDS011;25081;42.698;23.298;2023-06-19T12:40:59;6.27;;;4.80;;
6095;SDS011;25081;42.698;23.298;2023-06-19T12:43:09;7.00;;;5.27;;
6095;SDS011;25081;42.698;23.298;2023-06-19T12:45:20;7.00;;;5.90;;
6095;SDS011;25081;42.698;23.298;2023-06-19T12:47:31;5.50;;;4.50;;
6095;SDS011;25081;42.698;23.298;2023-06-19T12:49:42;7.60;;;4.93;;
6095;SDS011;25081;42.698;23.298;2023-06-19T12:51:52;6.20;;;4.60;;
6095;SDS011;25081;42.698;23.298;2023-06-19T12:54:03;6.40;;;4.90;;
6095;SDS011;25081;42.698;23.298;2023-06-19T12:56:14;4.87;;;4.37;;
6095;SDS011;25081;42.698;23.298;2023-06-19T12:58:25;9.13;;;4.43;;
6095;SDS011;25081;42.698;23.298;2023-06-19T13:00:36;5.77;;;4.70;;
6095;SDS011;25081;42.698;23.298;2023-06-19T13:02:46;4.60;;;4.07;;
6095;SDS011;25081;42.698;23.298;2023-06-19T13:04:57;5.53;;;4.60;;
6095;SDS011;25081;42.698;23.298;2023-06-19T13:07:08;4.90;;;4.30;;